createdAt,value
2019-01-14T00:00:10.662Z,99.99
2019-01-14T00:01:10.653Z,99.99
2019-01-14T00:02:10.656Z,99.99
2019-01-14T00:03:10.638Z,99.99
2019-01-14T00:04:10.628Z,99.99
2019-01-14T00:05:10.630Z,99.99
2019-01-14T00:06:10.614Z,99.99
2019-01-14T00:07:10.603Z,99.99
2019-01-14T00:08:10.582Z,99.99
2019-01-14T00:09:10.571Z,99.99
2019-01-14T00:10:10.599Z,99.99
2019-01-14T00:11:10.546Z,99.99
2019-01-14T00:12:10.586Z,99.99
2019-01-14T00:13:10.526Z,99.99
2019-01-14T00:14:10.514Z,99.99
2019-01-14T00:15:10.507Z,99.99
2019-01-14T00:16:10.496Z,99.99
2019-01-14T00:17:10.520Z,99.99
2019-01-14T00:18:10.473Z,99.99
2019-01-14T00:19:10.511Z,99.99
2019-01-14T00:20:10.512Z,99.99
2019-01-14T00:21:10.451Z,99.99
2019-01-14T00:22:10.472Z,99.99
2019-01-14T00:23:10.464Z,99.99
2019-01-14T00:24:10.427Z,99.99
2019-01-14T00:25:10.412Z,99.99
2019-01-14T00:26:10.969Z,99.99
2019-01-14T00:27:10.393Z,99.99
2019-01-14T00:28:10.425Z,99.99
2019-01-14T00:29:10.388Z,99.99
2019-01-14T00:30:10.364Z,99.99
2019-01-14T00:31:10.356Z,99.99
2019-01-14T00:32:10.331Z,99.99
2019-01-14T00:33:10.337Z,99.99
2019-01-14T00:34:10.303Z,99.99
2019-01-14T00:35:10.322Z,99.99
2019-01-14T00:36:17.268Z,99.99
2019-01-14T00:37:11.270Z,99.99
2019-01-14T00:38:10.265Z,99.99
2019-01-14T00:39:10.340Z,99.99
2019-01-14T00:40:10.259Z,99.99
2019-01-14T00:41:10.243Z,99.99
2019-01-14T00:42:10.224Z,99.99
2019-01-14T00:43:10.762Z,99.99
2019-01-14T00:44:10.259Z,99.99
2019-01-14T00:45:10.192Z,99.99
2019-01-14T00:46:10.171Z,99.99
2019-01-14T00:47:10.250Z,99.99
2019-01-14T00:48:10.156Z,99.99
2019-01-14T00:49:10.366Z,99.99
2019-01-14T00:50:10.137Z,99.99
2019-01-14T00:51:10.162Z,99.99
2019-01-14T00:52:10.312Z,99.99
2019-01-14T00:53:10.098Z,99.99
2019-01-14T00:54:10.714Z,99.99
2019-01-14T00:55:10.085Z,99.99
2019-01-14T00:56:10.076Z,99.99
2019-01-14T00:57:10.083Z,99.99
2019-01-14T00:58:10.139Z,99.99
2019-01-14T00:59:10.139Z,99.99
2019-01-14T01:00:10.052Z,99.99
2019-01-14T01:01:10.014Z,99.99
2019-01-14T01:02:10.012Z,99.99
2019-01-14T01:03:10.040Z,99.99
2019-01-14T01:04:10.057Z,99.99
2019-01-14T01:05:09.993Z,99.99
2019-01-14T01:06:10.801Z,99.99
2019-01-14T01:07:09.965Z,99.99
2019-01-14T01:08:10.057Z,99.99
2019-01-14T01:09:09.948Z,99.99
2019-01-14T01:10:10.182Z,99.99
2019-01-14T01:11:09.916Z,99.99
2019-01-14T01:12:09.898Z,99.99
2019-01-14T01:13:09.907Z,99.99
2019-01-14T01:14:09.912Z,99.99
2019-01-14T01:15:09.911Z,99.99
2019-01-14T01:16:09.865Z,99.99
2019-01-14T01:17:09.897Z,99.99
2019-01-14T01:18:09.837Z,99.99
2019-01-14T01:19:09.837Z,99.99
2019-01-14T01:20:09.829Z,99.99
2019-01-14T01:21:09.806Z,99.99
2019-01-14T01:22:09.956Z,99.99
2019-01-14T01:23:10.839Z,99.99
2019-01-14T01:24:09.786Z,99.99
2019-01-14T01:25:09.790Z,99.99
2019-01-14T01:26:09.790Z,99.99
2019-01-14T01:27:09.774Z,99.99
2019-01-14T01:28:09.858Z,99.99
2019-01-14T01:29:09.729Z,99.99
2019-01-14T01:30:09.760Z,99.99
2019-01-14T01:31:09.702Z,99.99
2019-01-14T01:32:09.700Z,99.99
2019-01-14T01:33:09.787Z,99.99
2019-01-14T01:34:09.662Z,99.99
2019-01-14T01:35:09.657Z,99.99
2019-01-14T01:36:09.646Z,99.99
2019-01-14T01:37:09.639Z,99.99
2019-01-14T01:38:09.713Z,99.99
2019-01-14T01:39:09.651Z,99.99
2019-01-14T01:40:09.599Z,99.99
2019-01-14T01:41:09.609Z,99.99
2019-01-14T01:42:09.613Z,99.99
2019-01-14T01:43:09.574Z,99.99
2019-01-14T01:44:09.614Z,99.99
2019-01-14T01:45:11.170Z,99.99
2019-01-14T01:46:09.582Z,99.99
2019-01-14T01:47:09.557Z,99.99
2019-01-14T01:48:09.622Z,99.99
2019-01-14T01:49:09.527Z,99.99
2019-01-14T01:50:09.546Z,99.99
2019-01-14T01:51:10.330Z,99.99
2019-01-14T01:52:09.511Z,99.99
2019-01-14T01:53:09.490Z,99.99
2019-01-14T01:54:09.455Z,99.99
2019-01-14T01:55:10.288Z,99.99
2019-01-14T01:56:09.474Z,99.99
2019-01-14T01:57:09.505Z,99.99
2019-01-14T01:58:09.917Z,99.99
2019-01-14T01:59:09.405Z,99.99
2019-01-14T02:00:09.398Z,99.99
2019-01-14T02:01:10.279Z,99.99
2019-01-14T02:02:09.395Z,99.99
2019-01-14T02:03:09.394Z,99.99
2019-01-14T02:04:09.416Z,99.99
2019-01-14T02:05:09.356Z,99.99
2019-01-14T02:06:09.327Z,99.99
2019-01-14T02:07:09.344Z,99.99
2019-01-14T02:08:09.331Z,99.99
2019-01-14T02:09:09.306Z,99.99
2019-01-14T02:10:09.393Z,99.99
2019-01-14T02:11:09.311Z,99.99
2019-01-14T02:12:09.259Z,99.99
2019-01-14T02:13:09.270Z,99.99
2019-01-14T02:14:09.261Z,99.99
2019-01-14T02:15:09.323Z,99.99
2019-01-14T02:16:09.238Z,99.99
2019-01-14T02:17:09.237Z,99.99
2019-01-14T02:18:09.288Z,99.99
2019-01-14T02:19:09.207Z,99.99
2019-01-14T02:20:09.177Z,99.99
2019-01-14T02:21:09.184Z,99.99
2019-01-14T02:22:09.154Z,99.99
2019-01-14T02:23:09.186Z,99.99
2019-01-14T02:24:09.168Z,99.99
2019-01-14T02:25:09.184Z,99.99
2019-01-14T02:26:09.205Z,99.99
2019-01-14T02:27:09.110Z,99.99
2019-01-14T02:28:09.130Z,99.99
2019-01-14T02:29:09.105Z,99.99
2019-01-14T02:30:09.076Z,99.99
2019-01-14T02:31:09.059Z,99.99
2019-01-14T02:32:09.159Z,99.99
2019-01-14T02:33:09.041Z,99.99
2019-01-14T02:34:09.139Z,99.99
2019-01-14T02:35:09.024Z,99.99
2019-01-14T02:36:09.011Z,99.99
2019-01-14T02:37:09.035Z,99.99
2019-01-14T02:38:09.000Z,99.99
2019-01-14T02:39:08.997Z,99.99
2019-01-14T02:40:08.986Z,99.99
2019-01-14T02:41:08.965Z,99.99
2019-01-14T02:42:08.947Z,99.99
2019-01-14T02:43:08.933Z,99.99
2019-01-14T02:44:08.962Z,99.99
2019-01-14T02:45:08.929Z,99.99
2019-01-14T02:46:08.971Z,99.99
2019-01-14T02:47:08.907Z,99.99
2019-01-14T02:48:08.895Z,99.99
2019-01-14T02:49:08.869Z,99.99
2019-01-14T02:50:08.890Z,99.99
2019-01-14T02:51:08.850Z,99.99
2019-01-14T02:52:08.873Z,99.99
2019-01-14T02:53:08.840Z,99.99
2019-01-14T02:54:08.853Z,99.99
2019-01-14T02:55:08.846Z,99.99
2019-01-14T02:56:08.829Z,99.99
2019-01-14T02:57:08.783Z,99.99
2019-01-14T02:58:08.803Z,99.99
2019-01-14T02:59:08.765Z,99.99
2019-01-14T03:00:08.764Z,99.99
2019-01-14T03:01:08.758Z,99.99
2019-01-14T03:02:08.761Z,99.99
2019-01-14T03:03:08.729Z,99.99
2019-01-14T03:04:08.736Z,99.99
2019-01-14T03:05:08.703Z,99.99
2019-01-14T03:06:08.692Z,99.99
2019-01-14T03:07:08.679Z,99.99
2019-01-14T03:08:08.684Z,99.99
2019-01-14T03:09:08.688Z,99.99
2019-01-14T03:10:08.667Z,99.99
2019-01-14T03:11:08.636Z,99.99
2019-01-14T03:12:08.661Z,99.99
2019-01-14T03:13:08.614Z,99.99
2019-01-14T03:14:08.631Z,99.99
2019-01-14T03:15:08.641Z,99.99
2019-01-14T03:16:08.736Z,99.99
2019-01-14T03:17:08.570Z,99.99
2019-01-14T03:18:08.563Z,99.99
2019-01-14T03:19:08.586Z,99.99
2019-01-14T03:20:08.534Z,99.99
2019-01-14T03:21:08.527Z,99.99
2019-01-14T03:22:08.529Z,99.99
2019-01-14T03:23:08.602Z,99.99
2019-01-14T03:24:08.520Z,99.99
2019-01-14T03:25:08.499Z,99.99
2019-01-14T03:26:08.484Z,99.99
2019-01-14T03:27:08.467Z,99.99
2019-01-14T03:28:08.460Z,99.99
2019-01-14T03:29:08.493Z,99.99
2019-01-14T03:30:08.437Z,99.99
2019-01-14T03:31:08.428Z,99.99
2019-01-14T03:32:08.414Z,99.99
2019-01-14T03:33:08.404Z,99.99
2019-01-14T03:34:08.395Z,99.99
2019-01-14T03:35:08.425Z,99.99
2019-01-14T03:36:08.370Z,99.99
2019-01-14T03:37:08.584Z,99.99
2019-01-14T03:38:08.350Z,99.99
2019-01-14T03:39:08.368Z,99.99
2019-01-14T03:40:08.327Z,99.99
2019-01-14T03:41:08.358Z,99.99
2019-01-14T03:42:08.299Z,99.99
2019-01-14T03:43:08.306Z,99.99
2019-01-14T03:44:08.286Z,99.99
2019-01-14T03:45:08.272Z,99.99
2019-01-14T03:46:08.263Z,99.99
2019-01-14T03:47:08.288Z,99.99
2019-01-14T03:48:08.271Z,99.99
2019-01-14T03:49:08.233Z,99.99
2019-01-14T03:50:08.237Z,99.99
2019-01-14T03:51:08.211Z,99.99
2019-01-14T03:52:08.215Z,99.99
2019-01-14T03:53:08.228Z,99.99
2019-01-14T03:54:08.174Z,99.99
2019-01-14T03:55:08.201Z,99.99
2019-01-14T03:56:08.164Z,99.99
2019-01-14T03:57:08.144Z,99.99
2019-01-14T03:58:08.132Z,99.99
2019-01-14T03:59:08.136Z,99.99
2019-01-14T04:00:08.202Z,99.99
2019-01-14T04:01:08.164Z,99.99
2019-01-14T04:02:08.099Z,99.99
2019-01-14T04:03:08.152Z,99.99
2019-01-14T04:04:08.067Z,99.99
2019-01-14T04:05:08.056Z,99.99
2019-01-14T04:06:08.092Z,99.99
2019-01-14T04:07:13.675Z,99.99
2019-01-14T04:08:09.029Z,99.99
2019-01-14T04:09:08.023Z,99.99
2019-01-14T04:10:08.012Z,99.99
2019-01-14T04:11:08.047Z,99.99
2019-01-14T04:12:08.004Z,99.99
2019-01-14T04:13:07.980Z,99.99
2019-01-14T04:14:07.970Z,99.99
2019-01-14T04:15:07.960Z,99.99
2019-01-14T04:16:07.951Z,99.99
2019-01-14T04:17:07.944Z,99.99
2019-01-14T04:18:07.979Z,99.99
2019-01-14T04:19:07.958Z,99.99
2019-01-14T04:20:07.941Z,99.99
2019-01-14T04:21:07.896Z,99.99
2019-01-14T04:22:07.898Z,99.99
2019-01-14T04:23:07.934Z,99.99
2019-01-14T04:24:07.871Z,99.99
2019-01-14T04:25:07.898Z,99.99
2019-01-14T04:26:07.837Z,99.99
2019-01-14T04:27:07.838Z,99.99
2019-01-14T04:28:07.972Z,99.99
2019-01-14T04:29:07.805Z,99.99
2019-01-14T04:30:07.808Z,99.99
2019-01-14T04:31:07.800Z,99.99
2019-01-14T04:32:07.772Z,99.99
2019-01-14T04:33:07.797Z,99.99
2019-01-14T04:34:07.754Z,99.99
2019-01-14T04:35:07.790Z,99.99
2019-01-14T04:36:07.737Z,99.99
2019-01-14T04:37:07.753Z,99.99
2019-01-14T04:38:07.717Z,99.99
2019-01-14T04:39:07.721Z,99.99
2019-01-14T04:40:08.611Z,99.99
2019-01-14T04:41:07.725Z,99.99
2019-01-14T04:42:07.671Z,99.99
2019-01-14T04:43:07.662Z,99.99
2019-01-14T04:44:07.650Z,99.99
2019-01-14T04:45:07.648Z,99.99
2019-01-14T04:46:07.640Z,99.99
2019-01-14T04:47:07.616Z,99.99
2019-01-14T04:48:07.601Z,99.99
2019-01-14T04:49:07.625Z,99.99
2019-01-14T04:50:07.654Z,99.99
2019-01-14T04:51:07.584Z,99.99
2019-01-14T04:52:07.618Z,99.99
2019-01-14T04:53:07.571Z,99.99
2019-01-14T04:54:07.552Z,99.99
2019-01-14T04:55:07.552Z,99.99
2019-01-14T04:56:07.546Z,99.99
2019-01-14T04:57:07.556Z,99.99
2019-01-14T04:58:07.510Z,99.99
2019-01-14T04:59:07.530Z,99.99
2019-01-14T05:00:07.504Z,99.99
2019-01-14T05:01:07.597Z,99.99
2019-01-14T05:02:07.494Z,99.99
2019-01-14T05:03:07.471Z,99.99
2019-01-14T05:04:07.457Z,99.99
2019-01-14T05:05:07.452Z,99.99
2019-01-14T05:06:07.417Z,99.99
2019-01-14T05:07:07.414Z,99.99
2019-01-14T05:08:07.417Z,99.99
2019-01-14T05:09:07.391Z,99.99
2019-01-14T05:10:07.394Z,99.99
2019-01-14T05:11:07.400Z,99.99
2019-01-14T05:12:07.371Z,99.99
2019-01-14T05:13:07.347Z,99.99
2019-01-14T05:14:07.344Z,99.99
2019-01-14T05:15:07.327Z,99.99
2019-01-14T05:16:07.337Z,99.99
2019-01-14T05:17:07.372Z,99.99
2019-01-14T05:18:07.286Z,99.99
2019-01-14T05:19:07.298Z,99.99
2019-01-14T05:20:07.264Z,99.99
2019-01-14T05:21:07.284Z,99.99
2019-01-14T05:22:07.249Z,99.99
2019-01-14T05:23:07.292Z,99.99
2019-01-14T05:24:07.241Z,99.99
2019-01-14T05:25:07.290Z,99.99
2019-01-14T05:26:07.228Z,99.99
2019-01-14T05:27:07.208Z,99.99
2019-01-14T05:28:07.181Z,99.99
2019-01-14T05:29:07.173Z,99.99
2019-01-14T05:30:07.160Z,99.99
2019-01-14T05:31:07.248Z,99.99
2019-01-14T05:32:07.133Z,99.99
2019-01-14T05:33:07.127Z,99.99
2019-01-14T05:34:07.118Z,99.99
2019-01-14T05:35:07.113Z,99.99
2019-01-14T05:36:07.110Z,99.99
2019-01-14T05:37:07.104Z,99.99
2019-01-14T05:38:07.078Z,99.99
2019-01-14T05:39:07.081Z,99.99
2019-01-14T05:40:07.051Z,99.99
2019-01-14T05:41:07.098Z,99.99
2019-01-14T05:42:07.061Z,99.99
2019-01-14T05:43:07.105Z,99.99
2019-01-14T05:44:07.060Z,99.99
2019-01-14T05:45:07.035Z,99.99
2019-01-14T05:46:06.983Z,99.99
2019-01-14T05:47:07.025Z,99.99
2019-01-14T05:48:07.006Z,99.99
2019-01-14T05:49:07.009Z,99.99
2019-01-14T05:50:06.960Z,99.99
2019-01-14T05:51:06.950Z,99.99
2019-01-14T05:52:06.932Z,99.99
2019-01-14T05:53:06.911Z,99.99
2019-01-14T05:54:06.906Z,99.99
2019-01-14T05:55:06.936Z,99.99
2019-01-14T05:56:06.898Z,99.99
2019-01-14T05:57:06.873Z,99.99
2019-01-14T05:58:06.866Z,99.99
2019-01-14T05:59:06.866Z,99.99
2019-01-14T06:00:06.862Z,99.99
2019-01-14T06:01:06.880Z,99.99
2019-01-14T06:02:06.841Z,99.99
2019-01-14T06:03:06.845Z,99.99
2019-01-14T06:04:06.804Z,99.99
2019-01-14T06:05:06.820Z,99.99
2019-01-14T06:06:06.788Z,99.99
2019-01-14T06:07:06.796Z,99.99
2019-01-14T06:08:06.814Z,99.99
2019-01-14T06:09:06.761Z,99.99
2019-01-14T06:10:06.759Z,99.99
2019-01-14T06:11:06.742Z,99.99
2019-01-14T06:12:06.721Z,99.99
2019-01-14T06:13:06.722Z,99.99
2019-01-14T06:14:06.699Z,99.99
2019-01-14T06:15:06.700Z,99.99
2019-01-14T06:16:06.685Z,99.99
2019-01-14T06:17:06.724Z,99.99
2019-01-14T06:18:06.655Z,99.99
2019-01-14T06:19:06.658Z,99.99
2019-01-14T06:20:06.631Z,99.99
2019-01-14T06:21:06.701Z,99.99
2019-01-14T06:22:06.644Z,99.99
2019-01-14T06:23:06.605Z,99.99
2019-01-14T06:24:06.583Z,99.99
2019-01-14T06:25:06.782Z,99.99
2019-01-14T06:26:06.602Z,99.99
2019-01-14T06:27:06.551Z,99.99
2019-01-14T06:28:06.539Z,99.99
2019-01-14T06:29:06.566Z,99.99
2019-01-14T06:30:06.517Z,99.99
2019-01-14T06:31:06.525Z,99.99
2019-01-14T06:32:06.517Z,99.99
2019-01-14T06:33:06.502Z,99.99
2019-01-14T06:34:06.477Z,99.99
2019-01-14T06:35:06.469Z,99.99
2019-01-14T06:36:06.478Z,99.99
2019-01-14T06:37:06.468Z,99.99
2019-01-14T06:38:06.431Z,99.99
2019-01-14T06:39:06.433Z,99.99
2019-01-14T06:40:06.424Z,99.99
2019-01-14T06:41:06.417Z,99.99
2019-01-14T06:42:07.612Z,99.99
2019-01-14T06:43:06.403Z,99.99
2019-01-14T06:44:06.372Z,99.99
2019-01-14T06:45:06.361Z,99.99
2019-01-14T06:46:06.396Z,99.99
2019-01-14T06:47:06.341Z,99.99
2019-01-14T06:48:06.329Z,99.99
2019-01-14T06:49:06.352Z,99.99
2019-01-14T06:50:06.325Z,99.99
2019-01-14T06:51:06.337Z,99.99
2019-01-14T06:52:06.282Z,99.99
2019-01-14T06:53:06.277Z,99.99
2019-01-14T06:54:06.277Z,99.99
2019-01-14T06:55:06.276Z,99.99
2019-01-14T06:56:06.272Z,99.99
2019-01-14T06:57:06.243Z,99.99
2019-01-14T06:58:06.222Z,99.99
2019-01-14T06:59:06.211Z,99.99
2019-01-14T07:00:06.204Z,99.99
2019-01-14T07:01:06.274Z,99.99
2019-01-14T07:02:06.181Z,99.99
2019-01-14T07:03:06.169Z,99.99
2019-01-14T07:04:06.156Z,99.99
2019-01-14T07:05:06.149Z,99.99
2019-01-14T07:06:06.171Z,99.99
2019-01-14T07:07:06.159Z,99.99
2019-01-14T07:08:06.121Z,99.99
2019-01-14T07:09:06.108Z,99.99
2019-01-14T07:10:06.101Z,99.99
2019-01-14T07:11:06.119Z,99.99
2019-01-14T07:12:06.078Z,99.99
2019-01-14T07:13:06.103Z,99.99
2019-01-14T07:14:06.052Z,99.99
2019-01-14T07:15:06.040Z,99.99
2019-01-14T07:16:06.056Z,99.99
2019-01-14T07:17:06.028Z,99.99
2019-01-14T07:18:06.017Z,99.99
2019-01-14T07:19:06.029Z,99.99
2019-01-14T07:20:05.994Z,99.99
2019-01-14T07:21:05.999Z,99.99
2019-01-14T07:22:05.972Z,99.99
2019-01-14T07:23:05.959Z,99.99
2019-01-14T07:24:05.954Z,99.99
2019-01-14T07:25:05.966Z,99.99
2019-01-14T07:26:05.932Z,99.99
2019-01-14T07:27:05.945Z,99.99
2019-01-14T07:28:05.915Z,99.99
2019-01-14T07:29:06.483Z,99.99
2019-01-14T07:30:05.889Z,99.99
2019-01-14T07:31:05.913Z,99.99
2019-01-14T07:32:05.885Z,99.99
2019-01-14T07:33:05.855Z,99.99
2019-01-14T07:34:05.852Z,99.99
2019-01-14T07:35:05.837Z,99.99
2019-01-14T07:36:05.825Z,99.99
2019-01-14T07:37:05.837Z,99.99
2019-01-14T07:38:06.987Z,99.99
2019-01-14T07:39:05.792Z,99.99
2019-01-14T07:40:05.784Z,99.99
2019-01-14T07:41:05.771Z,99.99
2019-01-14T07:42:05.757Z,99.99
2019-01-14T07:43:05.783Z,99.99
2019-01-14T07:44:05.780Z,99.99
2019-01-14T07:45:05.728Z,99.99
2019-01-14T07:46:05.712Z,99.99
2019-01-14T07:47:05.707Z,99.99
2019-01-14T07:48:05.695Z,99.99
2019-01-14T07:49:05.743Z,99.99
2019-01-14T07:50:05.778Z,99.99
2019-01-14T07:51:05.667Z,99.99
2019-01-14T07:52:05.650Z,99.99
2019-01-14T07:53:05.644Z,99.99
2019-01-14T07:54:05.634Z,99.99
2019-01-14T07:55:05.658Z,99.99
2019-01-14T07:56:05.633Z,99.99
2019-01-14T07:57:05.595Z,99.99
2019-01-14T07:58:05.591Z,99.99
2019-01-14T07:59:05.580Z,99.99
2019-01-14T08:00:05.565Z,99.99
2019-01-14T08:01:05.594Z,99.99
2019-01-14T08:02:05.560Z,99.99
2019-01-14T08:03:05.538Z,99.99
2019-01-14T08:04:05.523Z,99.99
2019-01-14T08:05:05.517Z,99.99
2019-01-14T08:06:05.505Z,99.99
2019-01-14T08:07:05.531Z,99.99
2019-01-14T08:08:05.481Z,99.99
2019-01-14T08:09:05.475Z,99.99
2019-01-14T08:10:05.462Z,99.99
2019-01-14T08:11:05.449Z,99.99
2019-01-14T08:12:05.453Z,99.99
2019-01-14T08:13:05.434Z,99.99
2019-01-14T08:14:05.419Z,99.99
2019-01-14T08:15:05.411Z,99.99
2019-01-14T08:16:05.420Z,99.99
2019-01-14T08:17:05.410Z,99.99
2019-01-14T08:18:05.431Z,99.99
2019-01-14T08:19:05.386Z,99.99
2019-01-14T08:20:05.436Z,99.99
2019-01-14T08:21:05.352Z,99.99
2019-01-14T08:22:05.347Z,99.99
2019-01-14T08:23:05.357Z,99.99
2019-01-14T08:24:05.355Z,99.99
2019-01-14T08:25:05.337Z,99.99
2019-01-14T08:26:05.299Z,99.99
2019-01-14T08:27:05.302Z,99.99
2019-01-14T08:28:05.286Z,99.99
2019-01-14T08:29:05.257Z,99.99
2019-01-14T08:30:05.254Z,99.99
2019-01-14T08:31:05.339Z,99.99
2019-01-14T08:32:05.251Z,99.99
2019-01-14T08:33:05.231Z,99.99
2019-01-14T08:34:05.274Z,99.99
2019-01-14T08:35:05.202Z,99.99
2019-01-14T08:36:05.239Z,99.99
2019-01-14T08:37:05.233Z,99.99
2019-01-14T08:38:05.182Z,99.99
2019-01-14T08:39:05.173Z,99.99
2019-01-14T08:40:05.230Z,99.99
2019-01-14T08:41:05.139Z,99.99
2019-01-14T08:42:05.153Z,99.99
2019-01-14T08:43:05.115Z,99.99
2019-01-14T08:44:05.137Z,99.99
2019-01-14T08:45:05.216Z,99.99
2019-01-14T08:46:05.088Z,99.99
2019-01-14T08:47:05.141Z,99.99
2019-01-14T08:48:05.053Z,99.99
2019-01-14T08:49:05.060Z,99.99
2019-01-14T08:50:05.071Z,99.99
2019-01-14T08:51:05.029Z,99.99
2019-01-14T08:52:05.373Z,99.99
2019-01-14T08:53:05.002Z,99.99
2019-01-14T08:54:05.024Z,99.99
2019-01-14T08:55:05.000Z,99.99
2019-01-14T08:56:05.006Z,99.99
2019-01-14T08:57:05.019Z,99.99
2019-01-14T08:58:04.952Z,99.99
2019-01-14T08:59:04.933Z,99.99
2019-01-14T09:00:04.925Z,99.99
2019-01-14T09:01:04.916Z,99.99
2019-01-14T09:02:04.916Z,99.99
2019-01-14T09:03:04.896Z,99.99
2019-01-14T09:04:04.883Z,99.99
2019-01-14T09:05:04.898Z,99.99
2019-01-14T09:06:04.857Z,99.99
2019-01-14T09:07:04.857Z,99.99
2019-01-14T09:08:04.882Z,99.99
2019-01-14T09:09:04.830Z,99.99
2019-01-14T09:10:04.818Z,99.99
2019-01-14T09:11:04.818Z,99.99
2019-01-14T09:12:04.796Z,99.99
2019-01-14T09:13:04.824Z,99.99
2019-01-14T09:14:04.771Z,99.99
2019-01-14T09:15:04.758Z,99.99
2019-01-14T09:16:04.752Z,99.99
2019-01-14T09:17:04.741Z,99.99
2019-01-14T09:18:04.749Z,99.99
2019-01-14T09:19:04.739Z,99.99
2019-01-14T09:20:04.700Z,99.99
2019-01-14T09:21:04.693Z,99.99
2019-01-14T09:22:04.679Z,99.99
2019-01-14T09:23:04.692Z,99.99
2019-01-14T09:24:04.662Z,99.99
2019-01-14T09:25:04.685Z,99.99
2019-01-14T09:26:04.687Z,99.99
2019-01-14T09:27:04.632Z,99.99
2019-01-14T09:28:04.619Z,99.99
2019-01-14T09:29:04.627Z,99.99
2019-01-14T09:30:04.616Z,99.99
2019-01-14T09:31:04.610Z,99.99
2019-01-14T09:32:04.603Z,99.99
2019-01-14T09:33:04.564Z,99.99
2019-01-14T09:34:04.773Z,99.99
2019-01-14T09:35:04.562Z,99.99
2019-01-14T09:36:04.540Z,99.99
2019-01-14T09:37:04.550Z,99.99
2019-01-14T09:38:04.541Z,99.99
2019-01-14T09:39:04.507Z,99.99
2019-01-14T09:40:04.492Z,99.99
2019-01-14T09:41:04.502Z,99.99
2019-01-14T09:42:04.478Z,99.99
2019-01-14T09:43:04.461Z,99.99
2019-01-14T09:44:04.490Z,99.99
2019-01-14T09:45:04.447Z,99.99
2019-01-14T09:46:04.430Z,99.99
2019-01-14T09:47:04.445Z,99.99
2019-01-14T09:48:04.411Z,99.99
2019-01-14T09:49:04.396Z,99.99
2019-01-14T09:50:04.453Z,99.99
2019-01-14T09:51:04.374Z,99.99
2019-01-14T09:52:04.367Z,99.99
2019-01-14T09:53:04.383Z,99.99
2019-01-14T09:54:04.343Z,99.99
2019-01-14T09:55:05.785Z,99.99
2019-01-14T09:56:04.330Z,99.99
2019-01-14T09:57:04.321Z,99.99
2019-01-14T09:58:04.369Z,99.99
2019-01-14T09:59:04.357Z,99.99
2019-01-14T10:00:04.303Z,99.99
2019-01-14T10:01:04.289Z,99.99
2019-01-14T10:02:04.267Z,99.99
2019-01-14T10:03:04.279Z,99.99
2019-01-14T10:04:04.237Z,99.99
2019-01-14T10:05:04.242Z,99.99
2019-01-14T10:06:04.271Z,99.99
2019-01-14T10:07:04.209Z,99.99
2019-01-14T10:08:04.235Z,99.99
2019-01-14T10:09:04.233Z,99.99
2019-01-14T10:10:04.180Z,99.99
2019-01-14T10:11:04.170Z,99.99
2019-01-14T10:12:04.154Z,99.99
2019-01-14T10:13:04.161Z,99.99
2019-01-14T10:14:04.153Z,99.99
2019-01-14T10:15:04.122Z,99.99
2019-01-14T10:16:04.151Z,99.99
2019-01-14T10:17:04.104Z,99.99
2019-01-14T10:18:04.103Z,99.99
2019-01-14T10:19:04.085Z,99.99
2019-01-14T10:20:04.081Z,99.99
2019-01-14T10:21:04.067Z,99.99
2019-01-14T10:22:04.056Z,99.99
2019-01-14T10:23:04.056Z,99.99
2019-01-14T10:24:04.050Z,99.99
2019-01-14T10:25:04.014Z,99.99
2019-01-14T10:26:04.004Z,99.99
2019-01-14T10:27:03.996Z,99.99
2019-01-14T10:28:04.036Z,99.99
2019-01-14T10:29:03.986Z,99.99
2019-01-14T10:30:03.969Z,99.99
2019-01-14T10:31:03.951Z,99.99
2019-01-14T10:32:03.973Z,99.99
2019-01-14T10:33:03.955Z,99.99
2019-01-14T10:34:03.928Z,99.99
2019-01-14T10:35:03.916Z,99.99
2019-01-14T10:36:03.965Z,99.99
2019-01-14T10:37:03.913Z,99.99
2019-01-14T10:38:03.891Z,99.99
2019-01-14T10:39:03.865Z,99.99
2019-01-14T10:40:03.862Z,99.99
2019-01-14T10:41:03.852Z,99.99
2019-01-14T10:42:05.155Z,99.90
2019-01-14T10:43:03.842Z,99.99
2019-01-14T10:44:03.807Z,99.79
2019-01-14T10:45:03.803Z,99.99
2019-01-14T10:46:03.789Z,99.99
2019-01-14T10:47:03.793Z,99.90
2019-01-14T10:48:03.802Z,99.64
2019-01-14T10:49:06.765Z,99.54
2019-01-14T10:50:03.743Z,99.74
2019-01-14T10:51:03.747Z,99.74
2019-01-14T10:52:03.723Z,99.74
2019-01-14T10:53:03.771Z,99.64
2019-01-14T10:54:03.714Z,99.74
2019-01-14T10:55:03.795Z,99.74
2019-01-14T10:56:03.700Z,99.95
2019-01-14T10:57:03.680Z,99.64
2019-01-14T10:58:03.714Z,99.99
2019-01-14T10:59:03.660Z,99.99
2019-01-14T11:00:03.698Z,99.99
2019-01-14T11:01:03.676Z,99.99
2019-01-14T11:02:03.631Z,99.99
2019-01-14T11:03:03.611Z,99.85
2019-01-14T11:04:03.669Z,99.22
2019-01-14T11:05:03.586Z,99.54
2019-01-14T11:06:03.594Z,99.85
2019-01-14T11:07:03.615Z,99.02
2019-01-14T11:08:03.567Z,99.54
2019-01-14T11:09:06.009Z,99.54
2019-01-14T11:10:03.595Z,99.02
2019-01-14T11:11:03.532Z,99.02
2019-01-14T11:12:03.517Z,99.12
2019-01-14T11:13:03.537Z,99.12
2019-01-14T11:14:04.303Z,99.02
2019-01-14T11:15:03.533Z,99.12
2019-01-14T11:16:03.510Z,99.06
2019-01-14T11:17:03.477Z,97.40
2019-01-14T11:18:03.502Z,97.19
2019-01-14T11:19:03.763Z,97.81
2019-01-14T11:20:03.661Z,98.75
2019-01-14T11:21:03.471Z,98.13
2019-01-14T11:22:03.409Z,97.45
2019-01-14T11:23:03.503Z,98.39
2019-01-14T11:24:03.393Z,98.50
2019-01-14T11:25:03.449Z,98.39
2019-01-14T11:26:03.495Z,98.29
2019-01-14T11:27:03.412Z,98.19
2019-01-14T11:28:03.352Z,97.56
2019-01-14T11:29:03.421Z,97.67
2019-01-14T11:30:03.346Z,97.77
2019-01-14T11:31:03.357Z,97.52
2019-01-14T11:32:03.323Z,97.20
2019-01-14T11:33:03.370Z,96.48
2019-01-14T11:34:03.324Z,96.58
2019-01-14T11:35:03.291Z,96.58
2019-01-14T11:36:03.304Z,96.17
2019-01-14T11:37:03.300Z,96.69
2019-01-14T11:38:03.251Z,96.06
2019-01-14T11:39:05.192Z,96.69
2019-01-14T11:40:03.235Z,95.86
2019-01-14T11:41:03.480Z,95.28
2019-01-14T11:42:03.210Z,95.59
2019-01-14T11:43:03.244Z,95.75
2019-01-14T11:44:03.180Z,95.69
2019-01-14T11:45:03.249Z,94.76
2019-01-14T11:46:03.154Z,94.76
2019-01-14T11:47:03.207Z,96.06
2019-01-14T11:48:03.147Z,95.65
2019-01-14T11:49:03.147Z,95.65
2019-01-14T11:50:03.181Z,94.82
2019-01-14T11:51:03.130Z,93.88
2019-01-14T11:52:03.154Z,93.88
2019-01-14T11:53:03.100Z,94.61
2019-01-14T11:54:03.112Z,94.40
2019-01-14T11:55:03.079Z,95.03
2019-01-14T11:56:03.080Z,94.92
2019-01-14T11:57:03.058Z,94.92
2019-01-14T11:58:03.050Z,94.88
2019-01-14T11:59:03.055Z,94.98
2019-01-14T12:00:03.042Z,94.15
2019-01-14T12:01:03.001Z,94.92
2019-01-14T12:02:03.090Z,94.46
2019-01-14T12:03:03.004Z,94.20
2019-01-14T12:04:03.017Z,95.03
2019-01-14T12:05:02.993Z,94.09
2019-01-14T12:06:02.982Z,93.88
2019-01-14T12:07:02.937Z,93.99
2019-01-14T12:08:02.958Z,94.71
2019-01-14T12:09:02.963Z,94.51
2019-01-14T12:10:03.751Z,95.65
2019-01-14T12:11:02.904Z,95.54
2019-01-14T12:12:02.967Z,95.34
2019-01-14T12:13:02.910Z,95.54
2019-01-14T12:14:02.903Z,94.51
2019-01-14T12:15:03.763Z,94.55
2019-01-14T12:16:02.880Z,95.54
2019-01-14T12:17:02.838Z,94.61
2019-01-14T12:18:02.855Z,94.20
2019-01-14T12:19:02.923Z,94.51
2019-01-14T12:20:02.824Z,96.06
2019-01-14T12:21:02.852Z,95.90
2019-01-14T12:22:02.865Z,95.59
2019-01-14T12:23:02.810Z,95.38
2019-01-14T12:24:02.781Z,95.59
2019-01-14T12:25:02.765Z,93.78
2019-01-14T12:26:02.766Z,94.92
2019-01-14T12:27:02.767Z,95.07
2019-01-14T12:28:03.246Z,93.62
2019-01-14T12:29:02.721Z,93.88
2019-01-14T12:30:02.721Z,95.23
2019-01-14T12:31:02.729Z,94.24
2019-01-14T12:32:02.723Z,94.13
2019-01-14T12:33:02.663Z,93.78
2019-01-14T12:34:02.685Z,93.57
2019-01-14T12:35:02.678Z,92.74
2019-01-14T12:36:02.678Z,92.94
2019-01-14T12:37:02.643Z,92.11
2019-01-14T12:38:02.685Z,92.43
2019-01-14T12:39:02.649Z,92.84
2019-01-14T12:40:02.656Z,92.22
2019-01-14T12:41:02.600Z,92.22
2019-01-14T12:42:02.570Z,91.70
2019-01-14T12:43:02.583Z,92.99
2019-01-14T12:44:02.571Z,92.78
2019-01-14T12:45:02.574Z,92.26
2019-01-14T12:46:02.519Z,92.05
2019-01-14T12:47:03.251Z,94.03
2019-01-14T12:48:02.502Z,93.99
2019-01-14T12:49:02.571Z,93.62
2019-01-14T12:50:02.498Z,94.03
2019-01-14T12:51:02.538Z,93.41
2019-01-14T12:52:03.706Z,94.86